sensor_id;sensor_type;location;lat;lon;timestamp;P1;durP1;ratioP1;P2;durP2;ratioP2
26474;SDS011;14161;52.270;10.334;2023-12-07T00:00:19;29.25;;;20.88;;
26474;SDS011;14161;52.270;10.334;2023-12-07T00:02:45;34.05;;;21.17;;
26474;SDS011;14161;52.270;10.334;2023-12-07T00:05:11;33.28;;;22.60;;
26474;SDS011;14161;52.270;10.334;2023-12-07T00:07:36;35.13;;;21.70;;
26474;SDS011;14161;52.270;10.334;2023-12-07T00:10:02;33.00;;;21.58;;
26474;SDS011;14161;52.270;10.334;2023-12-07T00:12:27;33.45;;;22.20;;
26474;SDS011;14161;52.270;10.334;2023-12-07T00:14:53;32.38;;;22.92;;
26474;SDS011;14161;52.270;10.334;2023-12-07T00:17:18;39.05;;;24.30;;
26474;SDS011;14161;52.270;10.334;2023-12-07T00:19:44;36.25;;;23.17;;
26474;SDS011;14161;52.270;10.334;2023-12-07T00:22:09;32.88;;;21.85;;
26474;SDS011;14161;52.270;10.334;2023-12-07T00:24:35;35.00;;;22.77;;
26474;SDS011;14161;52.270;10.334;2023-12-07T00:27:00;38.35;;;25.00;;
26474;SDS011;14161;52.270;10.334;2023-12-07T00:29:26;37.22;;;23.17;;
26474;SDS011;14161;52.270;10.334;2023-12-07T00:31:51;31.98;;;22.33;;
26474;SDS011;14161;52.270;10.334;2023-12-07T00:34:17;34.15;;;21.35;;
26474;SDS011;14161;52.270;10.334;2023-12-07T00:36:42;31.60;;;21.00;;
26474;SDS011;14161;52.270;10.334;2023-12-07T00:39:07;37.80;;;23.40;;
26474;SDS011;14161;52.270;10.334;2023-12-07T00:41:34;32.92;;;21.77;;
26474;SDS011;14161;52.270;10.334;2023-12-07T00:43:59;37.08;;;23.50;;
26474;SDS011;14161;52.270;10.334;2023-12-07T00:46:24;34.22;;;22.05;;
26474;SDS011;14161;52.270;10.334;2023-12-07T00:48:50;39.22;;;24.77;;
26474;SDS011;14161;52.270;10.334;2023-12-07T00:51:15;37.58;;;23.52;;
26474;SDS011;14161;52.270;10.334;2023-12-07T00:53:41;31.75;;;21.02;;
26474;SDS011;14161;52.270;10.334;2023-12-07T00:56:06;33.30;;;21.67;;
26474;SDS011;14161;52.270;10.334;2023-12-07T00:58:32;28.13;;;19.90;;
26474;SDS011;14161;52.270;10.334;2023-12-07T01:00:58;28.77;;;19.55;;
26474;SDS011;14161;52.270;10.334;2023-12-07T01:03:23;31.23;;;20.10;;
26474;SDS011;14161;52.270;10.334;2023-12-07T01:05:49;30.42;;;20.25;;
26474;SDS011;14161;52.270;10.334;2023-12-07T01:08:14;30.83;;;20.45;;
26474;SDS011;14161;52.270;10.334;2023-12-07T01:10:39;33.22;;;22.27;;
26474;SDS011;14161;52.270;10.334;2023-12-07T01:13:05;33.53;;;20.55;;
26474;SDS011;14161;52.270;10.334;2023-12-07T01:15:30;32.33;;;21.55;;
26474;SDS011;14161;52.270;10.334;2023-12-07T01:17:56;32.22;;;20.77;;
26474;SDS011;14161;52.270;10.334;2023-12-07T01:20:21;30.38;;;20.73;;
26474;SDS011;14161;52.270;10.334;2023-12-07T01:22:47;30.08;;;20.20;;
26474;SDS011;14161;52.270;10.334;2023-12-07T01:25:12;27.02;;;18.63;;
26474;SDS011;14161;52.270;10.334;2023-12-07T01:27:42;28.60;;;20.42;;
26474;SDS011;14161;52.270;10.334;2023-12-07T01:30:07;26.75;;;19.25;;
26474;SDS011;14161;52.270;10.334;2023-12-07T01:32:33;28.65;;;20.83;;
26474;SDS011;14161;52.270;10.334;2023-12-07T01:34:59;29.83;;;20.45;;
26474;SDS011;14161;52.270;10.334;2023-12-07T01:37:24;27.25;;;19.67;;
26474;SDS011;14161;52.270;10.334;2023-12-07T01:39:50;30.70;;;21.25;;
26474;SDS011;14161;52.270;10.334;2023-12-07T01:42:15;25.05;;;18.90;;
26474;SDS011;14161;52.270;10.334;2023-12-07T01:44:41;26.50;;;19.45;;
26474;SDS011;14161;52.270;10.334;2023-12-07T01:47:06;26.23;;;19.60;;
26474;SDS011;14161;52.270;10.334;2023-12-07T01:49:35;25.67;;;18.48;;
26474;SDS011;14161;52.270;10.334;2023-12-07T01:52:02;23.65;;;17.75;;
26474;SDS011;14161;52.270;10.334;2023-12-07T01:54:28;28.83;;;19.70;;
26474;SDS011;14161;52.270;10.334;2023-12-07T01:56:54;27.80;;;19.00;;
26474;SDS011;14161;52.270;10.334;2023-12-07T01:59:20;25.67;;;17.73;;
26474;SDS011;14161;52.270;10.334;2023-12-07T02:01:46;25.65;;;17.75;;
26474;SDS011;14161;52.270;10.334;2023-12-07T02:04:11;27.20;;;20.02;;
26474;SDS011;14161;52.270;10.334;2023-12-07T02:06:37;25.88;;;19.27;;
26474;SDS011;14161;52.270;10.334;2023-12-07T02:09:02;26.45;;;19.05;;
26474;SDS011;14161;52.270;10.334;2023-12-07T02:11:28;24.27;;;18.20;;
26474;SDS011;14161;52.270;10.334;2023-12-07T02:13:54;27.42;;;19.15;;
26474;SDS011;14161;52.270;10.334;2023-12-07T02:16:23;25.98;;;19.08;;
26474;SDS011;14161;52.270;10.334;2023-12-07T02:19:02;26.73;;;18.15;;
26474;SDS011;14161;52.270;10.334;2023-12-07T02:21:37;24.08;;;17.55;;
26474;SDS011;14161;52.270;10.334;2023-12-07T02:24:04;25.83;;;18.08;;
26474;SDS011;14161;52.270;10.334;2023-12-07T02:29:18;23.45;;;16.20;;
26474;SDS011;14161;52.270;10.334;2023-12-07T02:31:43;24.23;;;17.90;;
26474;SDS011;14161;52.270;10.334;2023-12-07T02:34:08;24.77;;;17.52;;
26474;SDS011;14161;52.270;10.334;2023-12-07T02:36:34;23.83;;;16.98;;
26474;SDS011;14161;52.270;10.334;2023-12-07T02:39:02;23.00;;;16.27;;
26474;SDS011;14161;52.270;10.334;2023-12-07T02:41:29;19.67;;;15.68;;
26474;SDS011;14161;52.270;10.334;2023-12-07T02:43:56;18.67;;;14.18;;
26474;SDS011;14161;52.270;10.334;2023-12-07T02:46:22;19.90;;;14.98;;
26474;SDS011;14161;52.270;10.334;2023-12-07T02:48:48;21.05;;;15.88;;
26474;SDS011;14161;52.270;10.334;2023-12-07T02:51:14;22.27;;;16.38;;
26474;SDS011;14161;52.270;10.334;2023-12-07T02:53:39;22.70;;;15.90;;
26474;SDS011;14161;52.270;10.334;2023-12-07T02:56:05;23.90;;;16.92;;
26474;SDS011;14161;52.270;10.334;2023-12-07T02:58:31;22.35;;;17.08;;
26474;SDS011;14161;52.270;10.334;2023-12-07T03:00:56;21.00;;;15.65;;
26474;SDS011;14161;52.270;10.334;2023-12-07T03:03:22;20.17;;;14.88;;
26474;SDS011;14161;52.270;10.334;2023-12-07T03:05:47;18.80;;;14.75;;
26474;SDS011;14161;52.270;10.334;2023-12-07T03:08:13;20.17;;;14.52;;
26474;SDS011;14161;52.270;10.334;2023-12-07T03:10:38;18.75;;;14.18;;
26474;SDS011;14161;52.270;10.334;2023-12-07T03:13:04;18.02;;;14.35;;
26474;SDS011;14161;52.270;10.334;2023-12-07T03:15:29;20.92;;;14.18;;
26474;SDS011;14161;52.270;10.334;2023-12-07T03:17:55;19.25;;;15.10;;
26474;SDS011;14161;52.270;10.334;2023-12-07T03:20:20;16.35;;;13.13;;
26474;SDS011;14161;52.270;10.334;2023-12-07T03:22:46;17.75;;;14.13;;
26474;SDS011;14161;52.270;10.334;2023-12-07T03:25:11;18.95;;;13.35;;
26474;SDS011;14161;52.270;10.334;2023-12-07T03:27:37;17.75;;;13.68;;
26474;SDS011;14161;52.270;10.334;2023-12-07T03:30:02;15.27;;;12.65;;
26474;SDS011;14161;52.270;10.334;2023-12-07T03:32:28;18.17;;;13.73;;
26474;SDS011;14161;52.270;10.334;2023-12-07T03:34:53;18.92;;;14.82;;
26474;SDS011;14161;52.270;10.334;2023-12-07T03:37:19;18.90;;;15.40;;
26474;SDS011;14161;52.270;10.334;2023-12-07T03:39:44;17.13;;;13.90;;
26474;SDS011;14161;52.270;10.334;2023-12-07T03:42:10;18.17;;;13.23;;
26474;SDS011;14161;52.270;10.334;2023-12-07T03:44:35;19.60;;;14.65;;
26474;SDS011;14161;52.270;10.334;2023-12-07T03:47:01;20.42;;;14.80;;
26474;SDS011;14161;52.270;10.334;2023-12-07T03:49:26;17.95;;;14.18;;
26474;SDS011;14161;52.270;10.334;2023-12-07T03:51:52;20.77;;;15.60;;
26474;SDS011;14161;52.270;10.334;2023-12-07T03:54:17;18.48;;;14.68;;
26474;SDS011;14161;52.270;10.334;2023-12-07T03:56:43;20.75;;;14.15;;
26474;SDS011;14161;52.270;10.334;2023-12-07T03:59:09;20.48;;;15.70;;
26474;SDS011;14161;52.270;10.334;2023-12-07T04:01:34;17.30;;;13.82;;
26474;SDS011;14161;52.270;10.334;2023-12-07T04:04:00;18.67;;;15.07;;
26474;SDS011;14161;52.270;10.334;2023-12-07T04:06:25;20.10;;;14.85;;
26474;SDS011;14161;52.270;10.334;2023-12-07T04:08:51;18.27;;;13.75;;
26474;SDS011;14161;52.270;10.334;2023-12-07T04:11:17;19.25;;;14.55;;
26474;SDS011;14161;52.270;10.334;2023-12-07T04:13:43;17.75;;;13.52;;
26474;SDS011;14161;52.270;10.334;2023-12-07T04:16:09;18.40;;;14.18;;
26474;SDS011;14161;52.270;10.334;2023-12-07T04:18:35;18.88;;;14.43;;
26474;SDS011;14161;52.270;10.334;2023-12-07T04:21:01;18.15;;;13.88;;
26474;SDS011;14161;52.270;10.334;2023-12-07T04:23:26;22.08;;;15.32;;
26474;SDS011;14161;52.270;10.334;2023-12-07T04:25:52;18.73;;;14.15;;
26474;SDS011;14161;52.270;10.334;2023-12-07T04:28:17;18.58;;;14.85;;
26474;SDS011;14161;52.270;10.334;2023-12-07T04:30:43;17.63;;;13.90;;
26474;SDS011;14161;52.270;10.334;2023-12-07T04:33:08;17.65;;;13.68;;
26474;SDS011;14161;52.270;10.334;2023-12-07T04:35:34;16.48;;;13.00;;
26474;SDS011;14161;52.270;10.334;2023-12-07T04:37:59;18.98;;;14.07;;
26474;SDS011;14161;52.270;10.334;2023-12-07T04:40:25;21.98;;;15.32;;
26474;SDS011;14161;52.270;10.334;2023-12-07T04:42:50;18.02;;;14.25;;
26474;SDS011;14161;52.270;10.334;2023-12-07T04:45:16;17.60;;;13.68;;
26474;SDS011;14161;52.270;10.334;2023-12-07T04:47:41;17.75;;;13.40;;
26474;SDS011;14161;52.270;10.334;2023-12-07T04:50:07;17.52;;;13.52;;
26474;SDS011;14161;52.270;10.334;2023-12-07T04:52:33;18.02;;;14.07;;
26474;SDS011;14161;52.270;10.334;2023-12-07T04:54:59;16.80;;;13.48;;
26474;SDS011;14161;52.270;10.334;2023-12-07T04:57:24;20.25;;;14.68;;
26474;SDS011;14161;52.270;10.334;2023-12-07T04:59:50;19.83;;;14.23;;
26474;SDS011;14161;52.270;10.334;2023-12-07T05:02:15;23.15;;;17.00;;
26474;SDS011;14161;52.270;10.334;2023-12-07T05:04:41;22.92;;;17.77;;
26474;SDS011;14161;52.270;10.334;2023-12-07T05:07:07;22.67;;;17.27;;
26474;SDS011;14161;52.270;10.334;2023-12-07T05:09:33;21.90;;;16.25;;
26474;SDS011;14161;52.270;10.334;2023-12-07T05:11:58;22.40;;;16.83;;
26474;SDS011;14161;52.270;10.334;2023-12-07T05:14:24;22.95;;;16.75;;
26474;SDS011;14161;52.270;10.334;2023-12-07T05:16:49;18.38;;;13.68;;
26474;SDS011;14161;52.270;10.334;2023-12-07T05:19:19;22.48;;;16.85;;
26474;SDS011;14161;52.270;10.334;2023-12-07T05:21:46;20.85;;;15.57;;
26474;SDS011;14161;52.270;10.334;2023-12-07T05:24:12;20.23;;;15.57;;
26474;SDS011;14161;52.270;10.334;2023-12-07T05:26:38;21.10;;;15.80;;
26474;SDS011;14161;52.270;10.334;2023-12-07T05:29:03;23.73;;;17.92;;
26474;SDS011;14161;52.270;10.334;2023-12-07T05:31:29;22.33;;;16.67;;
26474;SDS011;14161;52.270;10.334;2023-12-07T05:33:55;23.75;;;17.05;;
26474;SDS011;14161;52.270;10.334;2023-12-07T05:36:20;19.63;;;14.85;;
26474;SDS011;14161;52.270;10.334;2023-12-07T05:38:46;18.92;;;15.27;;
26474;SDS011;14161;52.270;10.334;2023-12-07T05:41:11;18.88;;;14.70;;
26474;SDS011;14161;52.270;10.334;2023-12-07T05:43:40;20.92;;;16.50;;
26474;SDS011;14161;52.270;10.334;2023-12-07T05:46:06;22.17;;;16.40;;
26474;SDS011;14161;52.270;10.334;2023-12-07T05:48:32;20.58;;;15.52;;
26474;SDS011;14161;52.270;10.334;2023-12-07T05:50:58;20.20;;;15.50;;
26474;SDS011;14161;52.270;10.334;2023-12-07T05:53:23;18.88;;;14.93;;
26474;SDS011;14161;52.270;10.334;2023-12-07T05:55:49;18.45;;;14.65;;
26474;SDS011;14161;52.270;10.334;2023-12-07T05:58:15;19.50;;;14.90;;
26474;SDS011;14161;52.270;10.334;2023-12-07T06:00:42;19.45;;;15.07;;
26474;SDS011;14161;52.270;10.334;2023-12-07T06:03:08;28.00;;;19.75;;
26474;SDS011;14161;52.270;10.334;2023-12-07T06:05:37;27.00;;;18.20;;
26474;SDS011;14161;52.270;10.334;2023-12-07T06:08:02;23.15;;;16.85;;
26474;SDS011;14161;52.270;10.334;2023-12-07T06:10:29;21.25;;;16.15;;
26474;SDS011;14161;52.270;10.334;2023-12-07T06:12:55;26.73;;;17.58;;
26474;SDS011;14161;52.270;10.334;2023-12-07T06:15:21;22.50;;;17.98;;
26474;SDS011;14161;52.270;10.334;2023-12-07T06:17:47;24.55;;;18.67;;
26474;SDS011;14161;52.270;10.334;2023-12-07T06:20:13;23.77;;;18.38;;
26474;SDS011;14161;52.270;10.334;2023-12-07T06:22:38;23.58;;;18.00;;
26474;SDS011;14161;52.270;10.334;2023-12-07T06:25:04;23.40;;;18.10;;
26474;SDS011;14161;52.270;10.334;2023-12-07T06:27:30;21.77;;;16.75;;
26474;SDS011;14161;52.270;10.334;2023-12-07T06:29:55;22.52;;;17.30;;
26474;SDS011;14161;52.270;10.334;2023-12-07T06:32:21;23.50;;;17.33;;
26474;SDS011;14161;52.270;10.334;2023-12-07T06:34:46;24.25;;;18.25;;
26474;SDS011;14161;52.270;10.334;2023-12-07T06:37:12;24.83;;;18.52;;
26474;SDS011;14161;52.270;10.334;2023-12-07T06:39:38;25.65;;;19.35;;
26474;SDS011;14161;52.270;10.334;2023-12-07T06:42:04;25.30;;;18.83;;
26474;SDS011;14161;52.270;10.334;2023-12-07T06:44:29;21.35;;;15.98;;
26474;SDS011;14161;52.270;10.334;2023-12-07T06:46:55;24.30;;;17.17;;
26474;SDS011;14161;52.270;10.334;2023-12-07T06:49:20;26.02;;;18.75;;
26474;SDS011;14161;52.270;10.334;2023-12-07T06:51:46;25.73;;;18.20;;
26474;SDS011;14161;52.270;10.334;2023-12-07T06:54:11;23.50;;;18.02;;
26474;SDS011;14161;52.270;10.334;2023-12-07T06:56:36;25.50;;;17.98;;
26474;SDS011;14161;52.270;10.334;2023-12-07T06:59:02;22.40;;;16.92;;
26474;SDS011;14161;52.270;10.334;2023-12-07T07:01:27;26.23;;;18.70;;
26474;SDS011;14161;52.270;10.334;2023-12-07T07:03:53;30.63;;;18.88;;
26474;SDS011;14161;52.270;10.334;2023-12-07T07:06:18;24.58;;;18.38;;
26474;SDS011;14161;52.270;10.334;2023-12-07T07:08:44;21.80;;;16.75;;
26474;SDS011;14161;52.270;10.334;2023-12-07T07:11:12;20.73;;;15.63;;
26474;SDS011;14161;52.270;10.334;2023-12-07T07:13:39;21.00;;;15.48;;
26474;SDS011;14161;52.270;10.334;2023-12-07T07:16:04;17.48;;;14.10;;
26474;SDS011;14161;52.270;10.334;2023-12-07T07:18:30;20.40;;;16.00;;
26474;SDS011;14161;52.270;10.334;2023-12-07T07:20:55;25.92;;;18.48;;
26474;SDS011;14161;52.270;10.334;2023-12-07T07:23:21;21.95;;;17.05;;
26474;SDS011;14161;52.270;10.334;2023-12-07T07:25:46;22.52;;;15.93;;
26474;SDS011;14161;52.270;10.334;2023-12-07T07:28:12;20.17;;;15.85;;
26474;SDS011;14161;52.270;10.334;2023-12-07T07:30:37;20.40;;;14.73;;
26474;SDS011;14161;52.270;10.334;2023-12-07T07:33:03;21.13;;;15.10;;
26474;SDS011;14161;52.270;10.334;2023-12-07T07:35:29;19.48;;;14.82;;
26474;SDS011;14161;52.270;10.334;2023-12-07T07:37:55;18.50;;;13.20;;
26474;SDS011;14161;52.270;10.334;2023-12-07T07:40:20;19.27;;;13.68;;
26474;SDS011;14161;52.270;10.334;2023-12-07T07:42:46;22.85;;;15.57;;
26474;SDS011;14161;52.270;10.334;2023-12-07T07:45:11;18.70;;;14.30;;
26474;SDS011;14161;52.270;10.334;2023-12-07T07:47:37;19.83;;;13.65;;
26474;SDS011;14161;52.270;10.334;2023-12-07T07:50:02;20.05;;;14.68;;
26474;SDS011;14161;52.270;10.334;2023-12-07T07:55:14;18.80;;;14.38;;
26474;SDS011;14161;52.270;10.334;2023-12-07T07:57:39;16.77;;;13.40;;
26474;SDS011;14161;52.270;10.334;2023-12-07T08:00:05;19.20;;;14.68;;
26474;SDS011;14161;52.270;10.334;2023-12-07T08:02:33;21.00;;;15.05;;
26474;SDS011;14161;52.270;10.334;2023-12-07T08:04:59;19.85;;;13.88;;
26474;SDS011;14161;52.270;10.334;2023-12-07T08:07:24;20.50;;;14.85;;
26474;SDS011;14161;52.270;10.334;2023-12-07T08:09:50;19.48;;;14.57;;
26474;SDS011;14161;52.270;10.334;2023-12-07T08:12:15;22.73;;;15.45;;
26474;SDS011;14161;52.270;10.334;2023-12-07T08:14:41;21.88;;;15.38;;
26474;SDS011;14161;52.270;10.334;2023-12-07T08:17:08;22.00;;;15.85;;
26474;SDS011;14161;52.270;10.334;2023-12-07T08:19:34;20.42;;;14.43;;
26474;SDS011;14161;52.270;10.334;2023-12-07T08:21:59;21.55;;;15.38;;
26474;SDS011;14161;52.270;10.334;2023-12-07T08:24:25;22.15;;;15.45;;
26474;SDS011;14161;52.270;10.334;2023-12-07T08:26:50;18.92;;;13.25;;
26474;SDS011;14161;52.270;10.334;2023-12-07T08:29:16;17.10;;;13.68;;
26474;SDS011;14161;52.270;10.334;2023-12-07T08:31:41;20.23;;;14.10;;
26474;SDS011;14161;52.270;10.334;2023-12-07T08:34:07;17.73;;;14.35;;
26474;SDS011;14161;52.270;10.334;2023-12-07T08:36:32;16.88;;;13.38;;
26474;SDS011;14161;52.270;10.334;2023-12-07T08:38:58;18.83;;;13.48;;
26474;SDS011;14161;52.270;10.334;2023-12-07T08:41:23;17.83;;;13.52;;
26474;SDS011;14161;52.270;10.334;2023-12-07T08:43:49;22.08;;;14.18;;
26474;SDS011;14161;52.270;10.334;2023-12-07T08:46:14;18.60;;;14.13;;
26474;SDS011;14161;52.270;10.334;2023-12-07T08:48:39;18.95;;;13.25;;
26474;SDS011;14161;52.270;10.334;2023-12-07T08:51:05;18.58;;;14.07;;
26474;SDS011;14161;52.270;10.334;2023-12-07T08:53:30;22.83;;;16.27;;
26474;SDS011;14161;52.270;10.334;2023-12-07T08:55:56;21.95;;;15.00;;
26474;SDS011;14161;52.270;10.334;2023-12-07T08:58:22;19.50;;;14.63;;
26474;SDS011;14161;52.270;10.334;2023-12-07T09:00:48;17.92;;;13.82;;
26474;SDS011;14161;52.270;10.334;2023-12-07T09:03:13;23.27;;;15.02;;
26474;SDS011;14161;52.270;10.334;2023-12-07T09:05:39;17.65;;;13.80;;
26474;SDS011;14161;52.270;10.334;2023-12-07T09:08:05;18.83;;;14.07;;
26474;SDS011;14161;52.270;10.334;2023-12-07T09:10:30;19.73;;;13.48;;
26474;SDS011;14161;52.270;10.334;2023-12-07T09:12:56;18.58;;;13.48;;
26474;SDS011;14161;52.270;10.334;2023-12-07T09:15:21;16.77;;;13.23;;
26474;SDS011;14161;52.270;10.334;2023-12-07T09:17:47;20.08;;;14.23;;
26474;SDS011;14161;52.270;10.334;2023-12-07T09:20:13;21.48;;;14.15;;
26474;SDS011;14161;52.270;10.334;2023-12-07T09:22:48;18.13;;;12.95;;
26474;SDS011;14161;52.270;10.334;2023-12-07T09:25:15;18.33;;;13.88;;
26474;SDS011;14161;52.270;10.334;2023-12-07T09:27:41;18.90;;;13.38;;
26474;SDS011;14161;52.270;10.334;2023-12-07T09:30:07;18.23;;;13.20;;
26474;SDS011;14161;52.270;10.334;2023-12-07T09:32:39;18.55;;;13.07;;
26474;SDS011;14161;52.270;10.334;2023-12-07T09:35:05;16.98;;;13.05;;
26474;SDS011;14161;52.270;10.334;2023-12-07T09:37:32;18.73;;;13.77;;
26474;SDS011;14161;52.270;10.334;2023-12-07T09:39:58;17.02;;;13.23;;
26474;SDS011;14161;52.270;10.334;2023-12-07T09:42:23;16.60;;;12.70;;
26474;SDS011;14161;52.270;10.334;2023-12-07T09:44:49;15.77;;;12.25;;
26474;SDS011;14161;52.270;10.334;2023-12-07T09:47:14;15.27;;;11.90;;
26474;SDS011;14161;52.270;10.334;2023-12-07T09:49:40;15.05;;;11.18;;
26474;SDS011;14161;52.270;10.334;2023-12-07T09:52:06;18.20;;;13.55;;
26474;SDS011;14161;52.270;10.334;2023-12-07T09:54:33;17.05;;;13.02;;
26474;SDS011;14161;52.270;10.334;2023-12-07T09:57:00;17.50;;;12.68;;
26474;SDS011;14161;52.270;10.334;2023-12-07T09:59:26;15.85;;;11.77;;
26474;SDS011;14161;52.270;10.334;2023-12-07T10:01:51;16.08;;;12.38;;
26474;SDS011;14161;52.270;10.334;2023-12-07T10:04:18;16.02;;;12.38;;
26474;SDS011;14161;52.270;10.334;2023-12-07T10:06:45;14.48;;;11.27;;
26474;SDS011;14161;52.270;10.334;2023-12-07T10:09:11;15.55;;;11.48;;
26474;SDS011;14161;52.270;10.334;2023-12-07T10:11:37;20.05;;;14.20;;
26474;SDS011;14161;52.270;10.334;2023-12-07T10:14:04;16.90;;;13.20;;
26474;SDS011;14161;52.270;10.334;2023-12-07T10:16:31;18.30;;;12.57;;
26474;SDS011;14161;52.270;10.334;2023-12-07T10:19:12;18.73;;;13.73;;
26474;SDS011;14161;52.270;10.334;2023-12-07T10:21:44;18.20;;;13.23;;
26474;SDS011;14161;52.270;10.334;2023-12-07T10:24:10;24.95;;;16.95;;
26474;SDS011;14161;52.270;10.334;2023-12-07T10:26:36;27.50;;;18.30;;
26474;SDS011;14161;52.270;10.334;2023-12-07T10:29:06;20.27;;;15.55;;
26474;SDS011;14161;52.270;10.334;2023-12-07T10:31:33;21.13;;;15.55;;
26474;SDS011;14161;52.270;10.334;2023-12-07T10:33:58;18.08;;;13.88;;
26474;SDS011;14161;52.270;10.334;2023-12-07T10:36:25;14.88;;;12.35;;
26474;SDS011;14161;52.270;10.334;2023-12-07T10:38:51;16.13;;;12.50;;
26474;SDS011;14161;52.270;10.334;2023-12-07T10:41:16;20.10;;;13.77;;
26474;SDS011;14161;52.270;10.334;2023-12-07T10:43:43;18.15;;;14.25;;
26474;SDS011;14161;52.270;10.334;2023-12-07T10:46:09;20.25;;;15.30;;
26474;SDS011;14161;52.270;10.334;2023-12-07T10:48:40;18.42;;;13.63;;
26474;SDS011;14161;52.270;10.334;2023-12-07T10:51:06;19.48;;;14.48;;
26474;SDS011;14161;52.270;10.334;2023-12-07T10:53:37;18.63;;;14.02;;
26474;SDS011;14161;52.270;10.334;2023-12-07T10:56:13;17.30;;;13.50;;
26474;SDS011;14161;52.270;10.334;2023-12-07T10:58:41;17.17;;;12.93;;
26474;SDS011;14161;52.270;10.334;2023-12-07T11:01:07;17.55;;;13.25;;
26474;SDS011;14161;52.270;10.334;2023-12-07T11:03:34;16.23;;;12.25;;
26474;SDS011;14161;52.270;10.334;2023-12-07T11:06:02;14.98;;;12.13;;
26474;SDS011;14161;52.270;10.334;2023-12-07T11:13:31;15.90;;;12.57;;
26474;SDS011;14161;52.270;10.334;2023-12-07T11:15:57;17.00;;;12.63;;
26474;SDS011;14161;52.270;10.334;2023-12-07T11:18:26;17.63;;;12.82;;
26474;SDS011;14161;52.270;10.334;2023-12-07T11:20:52;15.88;;;12.73;;
26474;SDS011;14161;52.270;10.334;2023-12-07T11:23:18;15.18;;;11.75;;
26474;SDS011;14161;52.270;10.334;2023-12-07T11:25:45;15.23;;;11.55;;
26474;SDS011;14161;52.270;10.334;2023-12-07T11:28:12;14.45;;;11.13;;
26474;SDS011;14161;52.270;10.334;2023-12-07T11:30:38;16.52;;;12.20;;
26474;SDS011;14161;52.270;10.334;2023-12-07T11:33:05;14.73;;;11.05;;
26474;SDS011;14161;52.270;10.334;2023-12-07T11:35:32;13.65;;;10.82;;
26474;SDS011;14161;52.270;10.334;2023-12-07T11:40:34;13.70;;;9.93;;
26474;SDS011;14161;52.270;10.334;2023-12-07T11:43:01;14.85;;;11.60;;
26474;SDS011;14161;52.270;10.334;2023-12-07T11:45:40;15.38;;;11.30;;
26474;SDS011;14161;52.270;10.334;2023-12-07T11:48:10;15.13;;;11.70;;
26474;SDS011;14161;52.270;10.334;2023-12-07T11:50:52;13.10;;;10.18;;
26474;SDS011;14161;52.270;10.334;2023-12-07T11:53:22;13.80;;;10.20;;
26474;SDS011;14161;52.270;10.334;2023-12-07T11:55:57;14.32;;;10.48;;
26474;SDS011;14161;52.270;10.334;2023-12-07T11:58:28;12.18;;;9.80;;
26474;SDS011;14161;52.270;10.334;2023-12-07T12:00:54;17.13;;;10.55;;
26474;SDS011;14161;52.270;10.334;2023-12-07T12:03:24;14.30;;;10.90;;
26474;SDS011;14161;52.270;10.334;2023-12-07T12:05:50;15.35;;;10.43;;
26474;SDS011;14161;52.270;10.334;2023-12-07T12:08:16;14.65;;;10.43;;
26474;SDS011;14161;52.270;10.334;2023-12-07T12:10:43;15.63;;;10.45;;
26474;SDS011;14161;52.270;10.334;2023-12-07T12:13:09;12.50;;;9.65;;
26474;SDS011;14161;52.270;10.334;2023-12-07T12:15:34;12.68;;;9.38;;
26474;SDS011;14161;52.270;10.334;2023-12-07T12:18:00;12.63;;;10.32;;
26474;SDS011;14161;52.270;10.334;2023-12-07T12:20:26;13.70;;;10.57;;
26474;SDS011;14161;52.270;10.334;2023-12-07T12:22:52;14.48;;;10.48;;
26474;SDS011;14161;52.270;10.334;2023-12-07T12:25:19;15.82;;;11.50;;
26474;SDS011;14161;52.270;10.334;2023-12-07T12:27:50;13.85;;;9.90;;
26474;SDS011;14161;52.270;10.334;2023-12-07T12:30:20;14.48;;;10.35;;
26474;SDS011;14161;52.270;10.334;2023-12-07T12:32:46;15.20;;;11.25;;
26474;SDS011;14161;52.270;10.334;2023-12-07T12:35:12;15.55;;;11.20;;
26474;SDS011;14161;52.270;10.334;2023-12-07T12:37:39;13.15;;;9.43;;
26474;SDS011;14161;52.270;10.334;2023-12-07T12:40:11;12.70;;;9.77;;
26474;SDS011;14161;52.270;10.334;2023-12-07T12:42:41;14.35;;;10.20;;
26474;SDS011;14161;52.270;10.334;2023-12-07T12:45:08;14.52;;;10.40;;
26474;SDS011;14161;52.270;10.334;2023-12-07T12:47:33;16.23;;;10.43;;
26474;SDS011;14161;52.270;10.334;2023-12-07T12:49:59;12.75;;;9.48;;
26474;SDS011;14161;52.270;10.334;2023-12-07T12:52:25;12.15;;;9.48;;
26474;SDS011;14161;52.270;10.334;2023-12-07T12:54:51;11.48;;;9.20;;
26474;SDS011;14161;52.270;10.334;2023-12-07T12:57:17;12.82;;;9.63;;
26474;SDS011;14161;52.270;10.334;2023-12-07T12:59:44;15.35;;;10.02;;
26474;SDS011;14161;52.270;10.334;2023-12-07T13:02:10;12.98;;;9.65;;
26474;SDS011;14161;52.270;10.334;2023-12-07T13:04:36;12.75;;;9.57;;
26474;SDS011;14161;52.270;10.334;2023-12-07T13:07:02;13.10;;;9.25;;
26474;SDS011;14161;52.270;10.334;2023-12-07T13:09:28;13.65;;;9.68;;
26474;SDS011;14161;52.270;10.334;2023-12-07T13:11:54;13.35;;;9.93;;
26474;SDS011;14161;52.270;10.334;2023-12-07T13:14:19;14.00;;;10.30;;
26474;SDS011;14161;52.270;10.334;2023-12-07T13:16:45;12.90;;;9.50;;
26474;SDS011;14161;52.270;10.334;2023-12-07T13:19:10;12.60;;;9.65;;
26474;SDS011;14161;52.270;10.334;2023-12-07T13:21:35;13.15;;;10.48;;
26474;SDS011;14161;52.270;10.334;2023-12-07T13:24:01;13.82;;;10.35;;
26474;SDS011;14161;52.270;10.334;2023-12-07T13:26:30;12.82;;;9.55;;
26474;SDS011;14161;52.270;10.334;2023-12-07T13:28:55;15.05;;;9.82;;
26474;SDS011;14161;52.270;10.334;2023-12-07T13:31:21;13.10;;;10.02;;
26474;SDS011;14161;52.270;10.334;2023-12-07T13:33:47;12.60;;;9.27;;
26474;SDS011;14161;52.270;10.334;2023-12-07T13:36:12;11.07;;;8.43;;
26474;SDS011;14161;52.270;10.334;2023-12-07T13:38:37;11.90;;;9.40;;
26474;SDS011;14161;52.270;10.334;2023-12-07T13:41:04;15.55;;;10.35;;
26474;SDS011;14161;52.270;10.334;2023-12-07T13:43:30;14.13;;;9.98;;
26474;SDS011;14161;52.270;10.334;2023-12-07T13:45:55;11.50;;;9.25;;
26474;SDS011;14161;52.270;10.334;2023-12-07T13:48:21;13.40;;;9.43;;
26474;SDS011;14161;52.270;10.334;2023-12-07T13:50:46;14.98;;;10.15;;
26474;SDS011;14161;52.270;10.334;2023-12-07T13:53:12;16.08;;;11.30;;
26474;SDS011;14161;52.270;10.334;2023-12-07T13:55:39;15.35;;;10.05;;
26474;SDS011;14161;52.270;10.334;2023-12-07T13:58:05;13.43;;;10.48;;
26474;SDS011;14161;52.270;10.334;2023-12-07T14:00:34;16.60;;;11.48;;
26474;SDS011;14161;52.270;10.334;2023-12-07T14:03:00;15.13;;;10.43;;
26474;SDS011;14161;52.270;10.334;2023-12-07T14:05:26;14.45;;;10.60;;
26474;SDS011;14161;52.270;10.334;2023-12-07T14:07:51;13.93;;;10.25;;
26474;SDS011;14161;52.270;10.334;2023-12-07T14:10:17;14.95;;;10.80;;
26474;SDS011;14161;52.270;10.334;2023-12-07T14:12:43;14.70;;;10.68;;
26474;SDS011;14161;52.270;10.334;2023-12-07T14:15:09;13.80;;;11.05;;
26474;SDS011;14161;52.270;10.334;2023-12-07T14:17:34;13.02;;;9.68;;